Time;durP1;ratioP1;P1;durP2;ratioP2;P2;SDS_P1;SDS_P2;PMS_P1;PMS_P2;Temp;Humidity;BMP_temperature;BMP_pressure;BME280_temperature;BME280_humidity;BME280_pressure;Samples;Min_cycle;Max_cycle;Signal;HPM_P1;HPM_P2
2022/10/03 00:00:21;;;;;;;25.45;9.65;;;10.40;99.90;;;;;;4969483;28;20142;-69
2022/10/03 00:03:21;;;;;;;16.63;8.20;;;10.40;99.90;;;;;;4954238;28;20509;-69
2022/10/03 00:06:14;;;;;;;22.73;8.55;;;10.40;99.90;;;;;;4957825;28;20052;-68
2022/10/03 00:09:03;;;;;;;26.55;10.02;;;10.40;99.90;;;;;;4958974;28;20477;-69
2022/10/03 00:12:02;;;;;;;23.45;9.25;;;10.40;99.90;;;;;;4936524;28;20043;-68
2022/10/03 00:14:38;;;;;;;20.42;9.25;;;10.40;99.90;;;;;;4942382;28;20398;-69
2022/10/03 00:17:11;;;;;;;18.83;8.15;;;10.30;99.90;;;;;;4943917;28;20049;-70
2022/10/03 00:20:26;;;;;;;15.63;7.93;;;10.30;99.90;;;;;;4960714;28;20039;-69
2022/10/03 00:22:57;;;;;;;25.08;8.55;;;10.20;99.90;;;;;;4898431;28;20544;-69
2022/10/03 00:25:48;;;;;;;26.58;9.00;;;10.20;99.90;;;;;;4955431;28;20085;-68
2022/10/03 00:28:47;;;;;;;18.50;7.85;;;10.30;99.90;;;;;;4946627;28;20038;-69
2022/10/03 00:31:21;;;;;;;24.60;8.93;;;10.30;99.90;;;;;;4934296;28;20125;-68
2022/10/03 00:34:08;;;;;;;25.00;9.48;;;10.20;99.90;;;;;;4938334;28;20049;-69
2022/10/03 00:36:58;;;;;;;26.45;9.30;;;10.20;99.90;;;;;;4958905;28;20039;-69
2022/10/03 00:40:03;;;;;;;38.65;11.05;;;10.20;99.90;;;;;;4945226;28;20038;-69
2022/10/03 00:42:56;;;;;;;26.45;10.25;;;10.20;99.90;;;;;;4955568;28;20126;-69
2022/10/03 00:46:13;;;;;;;25.25;9.10;;;10.20;99.90;;;;;;4955942;28;20058;-69
2022/10/03 00:48:55;;;;;;;25.33;9.57;;;10.20;99.90;;;;;;4873873;29;20515;-69
2022/10/03 00:51:50;;;;;;;16.30;7.97;;;10.20;99.90;;;;;;4862536;29;20097;-69
2022/10/03 00:54:20;;;;;;;31.45;9.52;;;10.20;99.90;;;;;;4947124;28;20075;-69
2022/10/03 00:57:24;;;;;;;30.13;9.55;;;10.10;99.90;;;;;;4941123;28;20380;-69
2022/10/03 01:00:20;;;;;;;33.70;10.30;;;10.20;99.90;;;;;;4923286;28;20520;-69
2022/10/03 01:02:56;;;;;;;28.08;10.52;;;10.20;99.90;;;;;;4943940;28;20061;-69
2022/10/03 01:05:44;;;;;;;25.23;9.52;;;10.20;99.90;;;;;;4958308;28;20047;-69
2022/10/03 01:08:16;;;;;;;30.60;11.02;;;10.20;99.90;;;;;;4956166;28;20276;-69
2022/10/03 01:11:02;;;;;;;22.45;10.43;;;10.20;99.90;;;;;;4934971;28;20062;-68
2022/10/03 01:13:50;;;;;;;26.98;10.93;;;10.20;99.90;;;;;;4989103;22;20045;-73
2022/10/03 01:16:36;;;;;;;21.75;10.00;;;10.20;99.90;;;;;;5033764;28;20399;-72
2022/10/03 01:19:40;;;;;;;18.55;9.95;;;10.20;99.90;;;;;;5027356;28;20064;-72
2022/10/03 01:22:21;;;;;;;29.35;10.38;;;10.10;99.90;;;;;;5015324;28;20566;-72
2022/10/03 01:25:06;;;;;;;30.88;9.52;;;10.10;99.90;;;;;;5033672;28;20067;-73
2022/10/03 01:30:54;;;;;;;30.17;12.32;;;10.10;99.90;;;;;;5033356;28;20115;-73
2022/10/03 01:33:47;;;;;;;29.08;11.20;;;10.00;99.90;;;;;;5031822;28;20046;-72
2022/10/03 01:36:19;;;;;;;28.50;12.43;;;10.00;99.90;;;;;;5031287;28;20041;-72
2022/10/03 01:39:02;;;;;;;30.35;11.75;;;10.00;99.90;;;;;;5017425;28;20053;-73
2022/10/03 01:41:51;;;;;;;39.60;11.20;;;10.00;99.90;;;;;;5032142;28;20045;-72
2022/10/03 01:44:27;;;;;;;26.25;11.43;;;10.00;99.90;;;;;;5029914;28;20052;-74
2022/10/03 01:47:22;;;;;;;31.77;12.45;;;10.10;99.90;;;;;;5024964;28;20033;-73
2022/10/03 01:49:52;;;;;;;39.63;13.90;;;10.10;99.90;;;;;;5031532;28;20067;-73
2022/10/03 01:52:21;;;;;;;30.80;13.27;;;10.10;99.90;;;;;;5026875;28;20075;-73
2022/10/03 01:55:00;;;;;;;36.83;13.88;;;10.10;99.90;;;;;;5031975;28;20037;-71
2022/10/03 01:58:10;;;;;;;34.42;12.82;;;10.00;99.90;;;;;;5025219;28;20041;-71
2022/10/03 02:00:49;;;;;;;45.05;15.70;;;10.00;99.90;;;;;;5023236;28;20405;-72
2022/10/03 02:03:31;;;;;;;28.92;13.93;;;10.00;99.90;;;;;;5021895;28;20419;-72
2022/10/03 02:06:34;;;;;;;41.85;15.82;;;10.00;99.90;;;;;;5026564;28;20049;-71
2022/10/03 02:09:10;;;;;;;44.13;16.27;;;10.00;99.90;;;;;;5023749;28;20051;-71
2022/10/03 02:11:51;;;;;;;47.03;17.33;;;10.10;99.90;;;;;;5027057;28;20037;-71
2022/10/03 02:14:40;;;;;;;45.80;18.17;;;10.10;99.90;;;;;;5029206;28;20048;-71
2022/10/03 02:17:47;;;;;;;42.30;18.30;;;10.20;99.90;;;;;;5028697;28;20041;-71
2022/10/03 02:20:41;;;;;;;45.58;17.98;;;10.00;99.90;;;;;;5008435;28;20674;-71
2022/10/03 02:23:35;;;;;;;48.70;20.15;;;10.00;99.90;;;;;;5029189;28;20037;-71
2022/10/03 02:26:07;;;;;;;46.55;20.40;;;10.00;99.90;;;;;;5030277;28;20039;-72
2022/10/03 02:28:54;;;;;;;46.92;20.13;;;10.00;99.90;;;;;;5034635;28;20056;-72
2022/10/03 02:31:58;;;;;;;46.47;21.35;;;10.00;99.90;;;;;;5025379;28;20037;-71
2022/10/03 02:34:55;;;;;;;48.20;20.42;;;10.00;99.90;;;;;;5030215;28;20045;-72
2022/10/03 02:37:45;;;;;;;48.30;20.60;;;10.00;99.90;;;;;;5032596;28;20048;-72
2022/10/03 02:41:09;;;;;;;54.10;19.58;;;9.90;99.90;;;;;;5023754;28;20041;-72
2022/10/03 02:44:11;;;;;;;57.15;21.02;;;9.90;99.90;;;;;;4968084;28;20668;-71
2022/10/03 02:47:02;;;;;;;51.03;20.73;;;9.90;99.90;;;;;;4967702;28;20253;-72
2022/10/03 02:49:52;;;;;;;49.03;20.05;;;9.90;99.90;;;;;;5023414;28;20059;-71
2022/10/03 02:52:36;;;;;;;57.65;22.77;;;9.90;99.90;;;;;;5032408;28;20036;-70
2022/10/03 02:55:27;;;;;;;48.33;23.67;;;9.90;99.90;;;;;;5029650;28;20072;-70
2022/10/03 02:58:39;;;;;;;54.95;22.38;;;9.80;99.90;;;;;;5033007;28;20645;-71
2022/10/03 03:01:41;;;;;;;54.05;23.48;;;9.80;99.90;;;;;;5023851;28;20045;-71
2022/10/03 03:04:42;;;;;;;74.32;23.75;;;9.70;99.90;;;;;;5020896;28;20098;-70
2022/10/03 03:07:30;;;;;;;69.15;23.80;;;9.80;99.90;;;;;;5033208;28;20033;-71
2022/10/03 03:10:18;;;;;;;60.13;25.05;;;9.70;99.90;;;;;;5035944;28;20045;-71
2022/10/03 03:13:14;;;;;;;77.38;25.02;;;9.60;99.90;;;;;;5033605;28;20060;-71
2022/10/03 03:16:03;;;;;;;72.80;26.35;;;9.60;99.90;;;;;;5027062;28;20132;-71
2022/10/03 03:18:43;;;;;;;82.72;28.15;;;9.60;99.90;;;;;;5040507;28;20133;-71
2022/10/03 03:21:23;;;;;;;58.88;24.08;;;9.60;99.90;;;;;;5031447;28;20033;-71
2022/10/03 03:24:46;;;;;;;89.70;29.30;;;9.50;99.90;;;;;;5033184;28;20172;-71
2022/10/03 03:27:50;;;;;;;74.20;26.35;;;9.60;99.90;;;;;;4955093;28;20061;-71
2022/10/03 03:30:31;;;;;;;79.65;27.40;;;9.50;99.90;;;;;;4979334;28;20054;-71
2022/10/03 03:33:34;;;;;;;71.90;26.92;;;9.50;99.90;;;;;;5030512;28;20037;-70
2022/10/03 03:36:04;;;;;;;73.75;28.42;;;9.50;99.90;;;;;;5034199;28;20041;-71
2022/10/03 03:38:54;;;;;;;92.32;28.83;;;9.50;99.90;;;;;;5037092;28;20487;-70
2022/10/03 03:41:49;;;;;;;82.80;28.30;;;9.40;99.90;;;;;;5028471;28;20029;-71
2022/10/03 03:44:36;;;;;;;88.70;29.43;;;9.40;99.90;;;;;;5033349;28;20145;-71
2022/10/03 03:47:09;;;;;;;99.22;29.27;;;9.60;99.90;;;;;;5033560;28;20060;-71
2022/10/03 03:49:51;;;;;;;91.65;31.00;;;9.50;99.90;;;;;;5034942;28;20044;-70
2022/10/03 03:52:17;;;;;;;119.60;30.55;;;9.40;99.90;;;;;;5032458;28;20045;-73
2022/10/03 03:55:14;;;;;;;100.65;30.42;;;9.40;99.90;;;;;;5030300;28;20184;-70
2022/10/03 03:57:58;;;;;;;129.07;33.78;;;9.40;99.90;;;;;;5034992;28;20121;-71
2022/10/03 04:00:47;;;;;;;115.53;29.75;;;9.50;99.90;;;;;;5031275;28;20476;-71
2022/10/03 04:03:33;;;;;;;143.05;34.28;;;9.40;99.90;;;;;;5035138;28;20448;-71
2022/10/03 04:06:33;;;;;;;149.07;34.72;;;9.40;99.90;;;;;;5033757;28;20086;-71
2022/10/03 04:09:12;;;;;;;205.07;36.13;;;9.40;99.90;;;;;;5034449;28;20677;-70
2022/10/03 04:11:58;;;;;;;146.38;37.28;;;9.40;99.90;;;;;;5037539;28;20039;-70
2022/10/03 04:14:59;;;;;;;138.43;34.13;;;9.40;99.90;;;;;;4998397;28;1061659;-71
2022/10/03 04:21:21;;;;;;;166.27;34.85;;;9.50;99.90;;;;;;5033729;28;20053;-73
2022/10/03 04:24:12;;;;;;;259.75;42.15;;;9.40;99.90;;;;;;5046062;28;20411;-73
2022/10/03 04:27:26;;;;;;;158.45;37.17;;;9.40;99.90;;;;;;5037210;28;20041;-73
2022/10/03 04:30:19;;;;;;;196.23;39.88;;;9.40;99.90;;;;;;5005846;28;20104;-71
2022/10/03 04:33:01;;;;;;;259.58;42.88;;;9.40;99.90;;;;;;5028000;28;20041;-71
2022/10/03 04:35:39;;;;;;;215.52;40.42;;;9.40;99.90;;;;;;5033808;28;20044;-71
2022/10/03 04:38:22;;;;;;;217.80;40.97;;;9.40;99.90;;;;;;5033157;28;20072;-71
2022/10/03 04:41:03;;;;;;;249.65;43.05;;;9.30;99.90;;;;;;5029101;28;20033;-73
2022/10/03 04:43:42;;;;;;;228.88;43.33;;;9.30;99.90;;;;;;5034052;28;20672;-73
2022/10/03 04:46:33;;;;;;;256.23;43.40;;;9.30;99.90;;;;;;5032211;28;20568;-73
2022/10/03 04:49:22;;;;;;;237.30;40.78;;;9.30;99.90;;;;;;5025935;28;20388;-73
2022/10/03 04:52:12;;;;;;;252.88;43.88;;;9.30;99.90;;;;;;5027825;28;20442;-70
2022/10/03 04:54:57;;;;;;;287.05;44.78;;;9.30;99.90;;;;;;5026756;28;20044;-71
2022/10/03 04:57:29;;;;;;;;;;;9.30;99.90;;;;;;5026679;28;20396;-71
2022/10/03 05:00:11;;;;;;;312.15;43.53;;;9.30;99.90;;;;;;5033394;28;20011;-71
2022/10/03 05:03:14;;;;;;;302.02;47.08;;;9.30;99.90;;;;;;5029184;28;20427;-73
2022/10/03 05:06:05;;;;;;;348.42;49.35;;;9.30;99.90;;;;;;5034213;28;20055;-73
2022/10/03 05:09:03;;;;;;;303.55;48.35;;;9.30;99.90;;;;;;5034525;28;20072;-73
2022/10/03 05:11:54;;;;;;;315.75;47.58;;;9.30;99.90;;;;;;5030411;28;20072;-72
2022/10/03 05:14:33;;;;;;;301.70;49.97;;;9.30;99.90;;;;;;5026616;28;20041;-73
2022/10/03 05:17:25;;;;;;;326.98;49.85;;;9.40;99.90;;;;;;5029733;28;20214;-72
2022/10/03 05:20:30;;;;;;;303.85;46.35;;;9.30;99.90;;;;;;5029993;28;20339;-72
2022/10/03 05:23:23;;;;;;;350.60;49.63;;;9.30;99.90;;;;;;5028717;28;20047;-72
2022/10/03 05:26:22;;;;;;;438.55;55.85;;;9.30;99.90;;;;;;5029560;28;20051;-71
2022/10/03 05:29:37;;;;;;;372.70;52.30;;;9.30;99.90;;;;;;5011560;28;20488;-71
2022/10/03 05:32:38;;;;;;;328.58;49.55;;;9.30;99.90;;;;;;5023881;28;20436;-71
2022/10/03 05:35:14;;;;;;;387.75;57.95;;;9.40;99.90;;;;;;5020618;28;20919;-71
2022/10/03 05:37:54;;;;;;;406.85;59.05;;;9.30;99.90;;;;;;5031709;28;20081;-71
2022/10/03 05:40:26;;;;;;;357.45;54.92;;;9.40;99.90;;;;;;5029562;28;20045;-71
2022/10/03 05:43:01;;;;;;;399.00;57.25;;;9.30;99.90;;;;;;5034454;28;20045;-71
2022/10/03 05:45:30;;;;;;;368.92;59.58;;;9.30;99.90;;;;;;5034646;28;20448;-71
2022/10/03 05:48:18;;;;;;;465.00;66.60;;;9.30;99.90;;;;;;5031550;28;20541;-70
2022/10/03 05:51:49;;;;;;;399.98;61.58;;;9.40;99.90;;;;;;5034045;28;20052;-70
2022/10/03 05:54:30;;;;;;;398.83;61.88;;;9.30;99.90;;;;;;4923152;28;20523;-70
2022/10/03 05:57:06;;;;;;;355.50;62.05;;;9.40;99.90;;;;;;5022297;28;20183;-72
2022/10/03 05:59:51;;;;;;;450.63;67.40;;;9.40;99.90;;;;;;5034415;28;20562;-73
2022/10/03 06:02:37;;;;;;;;;;;9.50;99.90;;;;;;5035320;28;20359;-72
2022/10/03 06:05:28;;;;;;;366.85;63.40;;;9.40;99.90;;;;;;5030432;28;20382;-72
2022/10/03 06:08:14;;;;;;;397.30;68.05;;;9.50;99.90;;;;;;5024655;28;20472;-71
2022/10/03 06:11:13;;;;;;;369.13;64.97;;;9.50;99.90;;;;;;5005563;28;20061;-71
2022/10/03 06:14:10;;;;;;;378.95;67.10;;;9.50;99.90;;;;;;5031499;28;20041;-71
2022/10/03 06:16:51;;;;;;;502.48;74.50;;;9.50;99.90;;;;;;5030246;28;20029;-71
2022/10/03 06:19:35;;;;;;;564.38;79.78;;;9.40;99.90;;;;;;5033721;28;20033;-71
2022/10/03 06:22:42;;;;;;;383.75;66.07;;;9.40;99.90;;;;;;5023736;28;20037;-72
2022/10/03 06:25:30;;;;;;;463.55;77.93;;;9.40;99.90;;;;;;5039733;28;20048;-71
2022/10/03 06:28:17;;;;;;;329.90;64.93;;;9.40;99.90;;;;;;5027617;28;20047;-71
2022/10/03 06:31:00;;;;;;;313.67;63.95;;;9.50;99.90;;;;;;5023655;28;20048;-71
2022/10/03 06:34:11;;;;;;;519.80;77.65;;;9.60;99.90;;;;;;5028126;28;20529;-72
2022/10/03 06:37:04;;;;;;;404.00;69.97;;;9.60;99.90;;;;;;4969647;28;20053;-71
2022/10/03 06:39:54;;;;;;;377.98;68.13;;;9.60;99.90;;;;;;4966060;28;20038;-71
2022/10/03 06:42:29;;;;;;;473.30;70.80;;;9.60;99.90;;;;;;5021924;28;20048;-72
2022/10/03 06:45:22;;;;;;;396.23;67.15;;;9.60;99.90;;;;;;5016579;28;20088;-71
2022/10/03 06:47:59;;;;;;;484.15;72.07;;;9.60;99.90;;;;;;5032276;28;20324;-71
2022/10/03 06:50:45;;;;;;;448.58;71.70;;;9.60;99.90;;;;;;5029998;28;20049;-71
2022/10/03 06:53:26;;;;;;;348.10;63.40;;;9.50;99.90;;;;;;5029263;28;20046;-71
2022/10/03 06:55:59;;;;;;;323.95;59.63;;;9.60;99.90;;;;;;5026003;28;20033;-71
2022/10/03 06:58:47;;;;;;;438.90;68.38;;;9.60;99.90;;;;;;5037415;28;20220;-71
2022/10/03 07:01:49;;;;;;;370.67;60.38;;;9.60;99.90;;;;;;5033025;28;20124;-70
2022/10/03 07:04:31;;;;;;;347.30;58.65;;;9.60;99.90;;;;;;5029627;28;20052;-70
2022/10/03 07:07:54;;;;;;;399.55;65.97;;;9.60;99.90;;;;;;5024443;28;20076;-71
2022/10/03 07:10:56;;;;;;;373.33;62.47;;;9.60;99.90;;;;;;4981166;28;20217;-70
2022/10/03 07:13:44;;;;;;;288.83;53.47;;;9.70;99.90;;;;;;4967771;22;20042;-70
2022/10/03 07:16:28;;;;;;;275.02;49.88;;;9.60;99.90;;;;;;4992737;28;20164;-69
2022/10/03 07:19:20;;;;;;;279.65;53.20;;;9.60;99.90;;;;;;4978441;28;20124;-69
2022/10/03 07:22:21;;;;;;;284.02;54.10;;;9.60;99.90;;;;;;5000370;28;20038;-69
2022/10/03 07:25:17;;;;;;;342.77;57.95;;;9.70;99.90;;;;;;5007124;28;20159;-69
2022/10/03 07:28:08;;;;;;;295.98;53.92;;;9.70;99.90;;;;;;4997338;28;20479;-68
2022/10/03 07:31:04;;;;;;;230.30;48.08;;;9.70;99.90;;;;;;4979407;28;20041;-69
2022/10/03 07:33:37;;;;;;;;;;;9.80;99.90;;;;;;4997096;28;20045;-69
2022/10/03 07:39:47;;;;;;;281.05;55.17;;;9.80;99.90;;;;;;5012929;28;20112;-69
2022/10/03 07:42:38;;;;;;;191.02;49.78;;;9.80;99.90;;;;;;4998824;28;21307;-69
2022/10/03 07:45:29;;;;;;;331.17;64.28;;;9.80;99.90;;;;;;5008287;28;20488;-69
2022/10/03 07:48:14;;;;;;;;;;;9.80;99.90;;;;;;4986943;28;20506;-70
2022/10/03 07:50:50;;;;;;;267.93;57.37;;;9.80;99.90;;;;;;4984440;28;19927;-70
2022/10/03 07:53:59;;;;;;;187.20;50.20;;;9.80;99.90;;;;;;4998436;28;20073;-70
2022/10/03 07:56:48;;;;;;;216.70;54.65;;;9.80;99.90;;;;;;4960051;28;20042;-70
2022/10/03 07:59:46;;;;;;;227.23;57.13;;;9.80;99.90;;;;;;4991173;28;20045;-70
2022/10/03 08:02:35;;;;;;;204.85;53.47;;;9.80;99.90;;;;;;5000280;28;20042;-70
2022/10/03 08:05:27;;;;;;;182.98;48.75;;;9.70;99.90;;;;;;5009309;28;20103;-70
2022/10/03 08:08:15;;;;;;;260.45;57.92;;;9.80;99.90;;;;;;5013084;28;20050;-69
2022/10/03 08:11:06;;;;;;;338.58;61.50;;;9.90;99.90;;;;;;4982659;28;20491;-70
2022/10/03 08:14:17;;;;;;;262.58;63.85;;;9.90;99.90;;;;;;4999457;28;20038;-70
2022/10/03 08:17:01;;;;;;;319.20;75.80;;;9.90;99.90;;;;;;5003928;28;20481;-70
2022/10/03 08:19:57;;;;;;;292.80;67.97;;;9.90;99.90;;;;;;5015356;28;20057;-70
2022/10/03 08:22:36;;;;;;;254.45;64.03;;;9.90;99.90;;;;;;4996848;28;20343;-70
2022/10/03 08:25:21;;;;;;;259.38;66.30;;;10.00;99.90;;;;;;4980225;28;20121;-70
2022/10/03 08:28:06;;;;;;;293.95;67.72;;;9.90;99.90;;;;;;5013396;28;20447;-70
2022/10/03 08:30:36;;;;;;;259.67;68.93;;;10.00;99.90;;;;;;4985893;28;20046;-70
2022/10/03 08:33:11;;;;;;;277.58;70.07;;;9.90;99.90;;;;;;5009613;28;20056;-70
2022/10/03 08:36:06;;;;;;;227.82;64.60;;;10.00;99.90;;;;;;5000972;28;20121;-71
2022/10/03 08:38:51;;;;;;;187.85;57.75;;;10.10;99.90;;;;;;5004162;28;20034;-71
2022/10/03 08:41:49;;;;;;;308.98;66.20;;;10.10;99.90;;;;;;4997112;28;20491;-68
2022/10/03 08:44:44;;;;;;;213.18;54.42;;;10.00;99.90;;;;;;5004543;28;20128;-71
2022/10/03 08:47:26;;;;;;;240.63;57.30;;;10.00;99.90;;;;;;4982806;28;20055;-71
2022/10/03 08:50:20;;;;;;;195.23;55.63;;;10.00;99.90;;;;;;5015241;28;20140;-71
2022/10/03 08:52:50;;;;;;;183.95;58.38;;;10.10;99.90;;;;;;4990664;28;20053;-72
2022/10/03 08:55:45;;;;;;;198.75;54.20;;;10.10;99.90;;;;;;4995608;28;20042;-71
2022/10/03 08:58:43;;;;;;;190.65;57.60;;;10.10;99.90;;;;;;4995514;28;20230;-71
2022/10/03 09:01:35;;;;;;;188.60;58.38;;;10.10;99.90;;;;;;5010232;28;20029;-71
2022/10/03 09:04:20;;;;;;;150.80;53.42;;;10.10;99.90;;;;;;5004297;28;20107;-69
2022/10/03 09:06:49;;;;;;;155.18;51.33;;;10.20;99.90;;;;;;4993725;28;20068;-70
2022/10/03 09:10:08;;;;;;;136.63;44.38;;;10.30;99.90;;;;;;5006314;28;20444;-71
2022/10/03 09:13:29;;;;;;;108.60;42.72;;;10.30;99.90;;;;;;4993318;28;20067;-70
2022/10/03 09:16:22;;;;;;;106.63;43.63;;;10.30;99.90;;;;;;4943910;28;20058;-70
2022/10/03 09:19:04;;;;;;;118.90;44.13;;;10.40;99.90;;;;;;5012110;28;20704;-69
2022/10/03 09:22:14;;;;;;;116.25;46.67;;;10.40;99.90;;;;;;4998511;28;20232;-70
2022/10/03 09:24:54;;;;;;;129.15;42.55;;;10.50;99.90;;;;;;5001161;28;20060;-70
2022/10/03 09:27:45;;;;;;;105.93;41.67;;;10.40;99.90;;;;;;4995944;28;20164;-70
2022/10/03 09:30:46;;;;;;;146.00;48.83;;;10.40;99.90;;;;;;5006753;28;20567;-70
2022/10/03 09:33:22;;;;;;;125.57;49.33;;;10.50;99.90;;;;;;4989936;28;20245;-68
2022/10/03 09:35:57;;;;;;;107.35;44.42;;;10.50;99.90;;;;;;5006639;28;20037;-69
2022/10/03 09:38:38;;;;;;;84.45;37.33;;;10.50;99.90;;;;;;4981482;28;20434;-70
2022/10/03 09:41:27;;;;;;;93.18;38.15;;;10.60;99.90;;;;;;4978969;28;20064;-69
2022/10/03 09:44:06;;;;;;;103.32;40.90;;;10.60;99.90;;;;;;5001776;28;20049;-70
2022/10/03 09:46:42;;;;;;;91.60;38.85;;;10.60;99.90;;;;;;4994792;28;20042;-69
2022/10/03 09:49:24;;;;;;;80.57;37.25;;;10.70;99.90;;;;;;4985741;28;20065;-71
2022/10/03 09:52:15;;;;;;;78.55;35.58;;;10.70;99.90;;;;;;4996490;28;20045;-69
2022/10/03 09:55:13;;;;;;;77.85;34.00;;;10.70;99.90;;;;;;4984764;28;20053;-69
2022/10/03 09:58:11;;;;;;;74.75;35.15;;;10.80;99.90;;;;;;5011832;28;20051;-70
2022/10/03 10:01:10;;;;;;;63.35;32.13;;;10.90;99.90;;;;;;4980234;28;20041;-70
2022/10/03 10:03:45;;;;;;;60.72;29.33;;;11.00;99.90;;;;;;5009849;28;20050;-70
2022/10/03 10:06:33;;;;;;;66.28;30.85;;;10.90;99.90;;;;;;4987731;28;20136;-69
2022/10/03 10:09:26;;;;;;;60.03;28.75;;;11.00;99.90;;;;;;4983143;28;20412;-70
2022/10/03 10:12:25;;;;;;;58.55;26.08;;;11.10;99.90;;;;;;5010749;28;20046;-69
2022/10/03 10:15:00;;;;;;;54.10;25.75;;;11.30;99.90;;;;;;5010433;28;20462;-69
2022/10/03 10:17:45;;;;;;;;;;;11.30;99.90;;;;;;4985688;28;20029;-70
2022/10/03 10:20:32;;;;;;;53.85;26.15;;;11.30;99.90;;;;;;5014786;28;19932;-71
2022/10/03 10:23:41;;;;;;;53.70;24.05;;;11.50;99.90;;;;;;4986282;28;20299;-71
2022/10/03 10:26:42;;;;;;;47.83;21.77;;;11.70;99.90;;;;;;5000721;28;22242;-71
2022/10/03 10:29:48;;;;;;;28.45;17.50;;;11.70;99.90;;;;;;5007247;28;20260;-70
2022/10/03 10:32:43;;;;;;;39.05;20.52;;;11.80;99.90;;;;;;4980681;28;20041;-69
2022/10/03 10:35:14;;;;;;;35.88;19.50;;;11.90;99.90;;;;;;4995746;28;20169;-69
2022/10/03 10:38:18;;;;;;;38.00;21.52;;;12.00;99.90;;;;;;4983012;28;20049;-69
2022/10/03 10:41:04;;;;;;;44.22;21.90;;;12.30;99.90;;;;;;5002249;28;20073;-69
2022/10/03 10:43:46;;;;;;;;;;;12.40;99.90;;;;;;4988160;28;20225;-70
2022/10/03 10:46:36;;;;;;;35.50;20.98;;;12.60;99.90;;;;;;4989095;28;19921;-70
2022/10/03 10:49:08;;;;;;;44.08;20.90;;;12.50;99.90;;;;;;5005985;28;20203;-70
2022/10/03 10:51:51;;;;;;;49.80;23.40;;;12.60;99.90;;;;;;4989066;28;20045;-69
2022/10/03 10:54:40;;;;;;;35.88;22.48;;;12.50;99.90;;;;;;5001159;28;20034;-68
2022/10/03 10:57:39;;;;;;;40.95;20.85;;;12.40;99.90;;;;;;4982897;28;20091;-69
2022/10/03 11:00:45;;;;;;;34.63;19.33;;;12.50;99.90;;;;;;4992509;28;20053;-70
2022/10/03 11:03:21;;;;;;;30.88;18.38;;;12.60;99.90;;;;;;5009478;28;20049;-70
2022/10/03 11:06:07;;;;;;;33.83;20.13;;;12.80;99.90;;;;;;4995684;28;20222;-70
2022/10/03 11:08:39;;;;;;;31.30;19.20;;;12.80;99.90;;;;;;4982955;28;20050;-69
2022/10/03 11:11:18;;;;;;;30.13;20.88;;;12.60;99.90;;;;;;4981881;28;20073;-70
2022/10/03 11:14:12;;;;;;;34.80;18.92;;;12.70;99.90;;;;;;4994921;28;20041;-69
2022/10/03 11:17:07;;;;;;;27.02;18.65;;;13.00;99.90;;;;;;4988093;28;21518;-68
2022/10/03 11:19:49;;;;;;;26.95;19.08;;;13.00;99.90;;;;;;4988691;28;20570;-70
2022/10/03 11:22:53;;;;;;;25.67;20.75;;;13.20;99.90;;;;;;5004609;28;20191;-70
2022/10/03 11:25:42;;;;;;;25.77;19.92;;;13.40;99.90;;;;;;5008712;28;20117;-69
2022/10/03 11:28:58;;;;;;;25.90;19.80;;;13.30;99.90;;;;;;4990983;28;20212;-70
2022/10/03 11:32:04;;;;;;;27.87;22.23;;;13.50;99.90;;;;;;5003120;28;20744;-70
2022/10/03 11:35:02;;;;;;;33.25;21.40;;;13.60;99.90;;;;;;4979160;28;20060;-71
2022/10/03 11:37:29;;;;;;;24.10;21.75;;;14.10;99.90;;;;;;4994965;28;20140;-71
2022/10/03 11:40:08;;;;;;;27.00;22.25;;;14.20;99.90;;;;;;4980341;28;20566;-71
2022/10/03 11:42:53;;;;;;;26.13;22.60;;;14.30;99.90;;;;;;4967500;28;20046;-70
2022/10/03 11:45:28;;;;;;;22.85;20.48;;;13.90;99.90;;;;;;5002945;28;20707;-69
2022/10/03 11:48:11;;;;;;;25.20;20.38;;;13.70;99.90;;;;;;4986069;28;20042;-71
2022/10/03 11:50:55;;;;;;;25.55;19.38;;;13.50;99.90;;;;;;4984875;28;20041;-71
2022/10/03 11:53:36;;;;;;;25.13;20.98;;;13.50;99.90;;;;;;4985392;28;20053;-68
2022/10/03 11:56:29;;;;;;;24.85;20.05;;;13.80;99.90;;;;;;4993300;28;20046;-71
2022/10/03 11:59:38;;;;;;;23.55;20.95;;;14.20;99.90;;;;;;4984851;28;20038;-68
2022/10/03 12:02:21;;;;;;;23.30;21.02;;;14.50;99.90;;;;;;5002445;28;20057;-68
2022/10/03 12:05:00;;;;;;;22.05;19.83;;;14.40;99.90;;;;;;4987041;28;20099;-71
2022/10/03 12:10:46;;;;;;;22.95;20.15;;;14.40;99.90;;;;;;4986434;28;20070;-69
2022/10/03 12:13:29;;;;;;;22.23;20.23;;;14.50;99.90;;;;;;4982348;28;20040;-69
2022/10/03 12:15:57;;;;;;;22.50;19.55;;;14.50;99.90;;;;;;4986905;28;20432;-70
2022/10/03 12:18:33;;;;;;;23.48;21.23;;;14.60;99.90;;;;;;4986281;28;20141;-69
2022/10/03 12:21:10;;;;;;;23.95;21.50;;;14.60;99.90;;;;;;4998255;28;20173;-69
2022/10/03 12:24:18;;;;;;;20.98;18.83;;;14.50;99.90;;;;;;4980689;28;20041;-69
2022/10/03 12:27:09;;;;;;;21.10;19.30;;;14.40;99.90;;;;;;4951352;28;20048;-68
2022/10/03 12:29:44;;;;;;;19.45;17.90;;;14.30;99.90;;;;;;5004831;28;20103;-69
2022/10/03 12:32:25;;;;;;;20.52;18.77;;;14.20;99.90;;;;;;5003572;28;20104;-69
2022/10/03 12:35:16;;;;;;;19.50;17.77;;;14.30;99.90;;;;;;4990783;28;20355;-69
2022/10/03 12:38:06;;;;;;;19.75;17.85;;;14.40;99.90;;;;;;4984720;28;20056;-69
2022/10/03 12:40:42;;;;;;;20.85;18.67;;;14.30;99.90;;;;;;4983573;28;20041;-70
2022/10/03 12:43:38;;;;;;;19.02;17.27;;;14.20;99.90;;;;;;4987206;28;20269;-69
2022/10/03 12:46:14;;;;;;;20.00;16.92;;;14.40;99.90;;;;;;4972285;28;20046;-69
2022/10/03 12:49:00;;;;;;;18.45;16.98;;;14.40;99.90;;;;;;5011659;28;20047;-71
2022/10/03 12:51:44;;;;;;;17.70;16.33;;;14.30;99.90;;;;;;5002507;28;20045;-69
2022/10/03 12:54:34;;;;;;;17.90;16.40;;;14.20;99.90;;;;;;4984630;28;20050;-69
2022/10/03 12:57:32;;;;;;;18.73;16.98;;;14.20;99.90;;;;;;5014672;28;20038;-68
2022/10/03 13:00:21;;;;;;;18.35;17.02;;;14.50;99.90;;;;;;5036860;28;20108;-70
2022/10/03 13:03:02;;;;;;;19.90;17.33;;;14.50;99.90;;;;;;5026139;28;20476;-68
2022/10/03 13:05:55;;;;;;;18.30;16.75;;;14.50;99.90;;;;;;4991695;28;20362;-70
2022/10/03 13:08:47;;;;;;;20.33;18.30;;;14.60;99.90;;;;;;4998151;28;20047;-69
2022/10/03 13:11:40;;;;;;;20.67;18.45;;;14.90;99.90;;;;;;5005372;28;20137;-70
2022/10/03 13:14:43;;;;;;;25.45;19.50;;;15.20;99.90;;;;;;4985045;28;20475;-69
2022/10/03 13:17:20;;;;;;;23.58;18.52;;;15.20;99.90;;;;;;5005755;28;20558;-69
2022/10/03 13:20:30;;;;;;;19.73;17.92;;;15.30;99.90;;;;;;4998100;28;20038;-70
2022/10/03 13:23:24;;;;;;;20.58;18.65;;;15.30;99.90;;;;;;4938177;28;20047;-69
2022/10/03 13:26:00;;;;;;;20.90;18.80;;;15.30;99.90;;;;;;5010000;28;20057;-69
2022/10/03 13:29:11;;;;;;;19.55;17.77;;;15.50;99.90;;;;;;4988022;28;20133;-69
2022/10/03 13:32:06;;;;;;;20.42;18.40;;;15.50;99.90;;;;;;5010777;28;20073;-69
2022/10/03 13:38:30;;;;;;;19.92;18.27;;;15.30;99.90;;;;;;4962888;28;20133;-68
2022/10/03 13:41:02;;;;;;;19.65;17.67;;;15.20;99.90;;;;;;4997950;28;20511;-70
2022/10/03 13:43:35;;;;;;;18.38;17.02;;;15.20;99.90;;;;;;4976732;28;20064;-70
2022/10/03 13:46:27;;;;;;;19.98;17.98;;;15.20;99.90;;;;;;4985357;28;20091;-69
2022/10/03 13:49:09;;;;;;;18.60;17.20;;;15.10;99.90;;;;;;4970916;28;20140;-69
2022/10/03 13:52:24;;;;;;;18.48;17.08;;;15.00;99.90;;;;;;4977871;28;20049;-69
2022/10/03 13:55:10;;;;;;;18.55;17.13;;;14.90;99.90;;;;;;4988645;28;20049;-69
2022/10/03 13:57:41;;;;;;;;;;;14.90;99.90;;;;;;4993400;28;20287;-69
2022/10/03 14:00:10;;;;;;;19.30;17.70;;;15.00;99.90;;;;;;4983091;28;19928;-69
2022/10/03 14:02:53;;;;;;;19.27;17.85;;;15.00;99.90;;;;;;4976632;28;20049;-69
2022/10/03 14:05:41;;;;;;;18.45;16.90;;;15.00;99.90;;;;;;4997524;28;20049;-69
2022/10/03 14:08:27;;;;;;;18.98;17.33;;;15.10;99.90;;;;;;4996084;28;20327;-69
2022/10/03 14:11:22;;;;;;;22.92;17.50;;;15.00;99.90;;;;;;4979408;28;20530;-69
2022/10/03 14:14:26;;;;;;;18.73;17.30;;;15.00;99.90;;;;;;4990549;28;20057;-69
2022/10/03 14:17:33;;;;;;;20.00;17.92;;;14.70;99.90;;;;;;5005516;28;20041;-70
2022/10/03 14:20:24;;;;;;;23.98;19.40;;;14.80;99.90;;;;;;4983449;28;20462;-69
2022/10/03 14:23:18;;;;;;;30.83;21.80;;;14.80;99.90;;;;;;4991619;28;20063;-69
2022/10/03 14:26:10;;;;;;;18.52;16.83;;;14.90;99.90;;;;;;4976060;28;20054;-70
2022/10/03 14:29:29;;;;;;;19.33;17.55;;;14.80;99.90;;;;;;4995358;28;20049;-70
2022/10/03 14:32:00;;;;;;;18.17;16.45;;;14.80;99.90;;;;;;5001711;28;20620;-70
2022/10/03 14:35:03;;;;;;;18.98;17.38;;;14.80;99.90;;;;;;4979027;28;20054;-70
2022/10/03 14:37:51;;;;;;;19.45;17.67;;;14.90;99.90;;;;;;4981178;28;20549;-71